createdAt,value
2017-11-06T00:00:19.071Z,10.73
2017-11-06T00:02:47.349Z,9.73
2017-11-06T00:05:15.629Z,9.70
2017-11-06T00:07:43.885Z,9.67
2017-11-06T00:10:13.762Z,9.97
2017-11-06T00:12:43.094Z,9.70
2017-11-06T00:15:11.450Z,10.30
2017-11-06T00:17:39.683Z,10.50
2017-11-06T00:20:07.982Z,9.80
2017-11-06T00:22:37.067Z,11.10
2017-11-06T00:25:05.358Z,10.10
2017-11-06T00:27:33.611Z,10.67
2017-11-06T00:30:01.857Z,10.57
2017-11-06T00:32:30.180Z,10.43
2017-11-06T00:34:58.465Z,9.00
2017-11-06T00:37:29.026Z,10.60
2017-11-06T00:39:57.303Z,9.50
2017-11-06T00:42:26.562Z,9.70
2017-11-06T00:44:54.802Z,10.20
2017-11-06T00:47:23.161Z,10.00
2017-11-06T00:49:52.264Z,10.40
2017-11-06T00:52:21.290Z,9.60
2017-11-06T00:54:49.598Z,9.60
2017-11-06T00:57:17.865Z,9.73
2017-11-06T00:59:46.113Z,9.50
2017-11-06T01:02:14.617Z,9.30
2017-11-06T01:04:43.789Z,10.17
2017-11-06T01:07:13.039Z,9.93
2017-11-06T01:09:41.321Z,9.93
2017-11-06T01:12:09.615Z,11.47
2017-11-06T01:14:38.754Z,9.33
2017-11-06T01:17:07.854Z,9.30
2017-11-06T01:19:37.161Z,9.30
2017-11-06T01:22:05.484Z,9.20
2017-11-06T01:24:34.601Z,9.67
2017-11-06T01:27:02.894Z,10.77
2017-11-06T01:29:31.151Z,10.70
2017-11-06T01:31:59.458Z,10.47
2017-11-06T01:34:29.898Z,9.77
2017-11-06T01:36:58.156Z,10.40
2017-11-06T01:39:26.432Z,10.33
2017-11-06T01:41:54.708Z,9.67
2017-11-06T01:44:22.982Z,9.80
2017-11-06T01:46:52.817Z,9.60
2017-11-06T01:49:22.054Z,9.80
2017-11-06T01:51:50.353Z,10.10
2017-11-06T01:54:18.618Z,9.43
2017-11-06T01:56:59.686Z,9.90
2017-11-06T01:59:28.721Z,10.37
2017-11-06T02:01:57.024Z,9.03
2017-11-06T02:04:27.069Z,10.07
2017-11-06T02:06:55.339Z,10.33
2017-11-06T02:09:23.829Z,10.40
2017-11-06T02:11:52.078Z,11.47
2017-11-06T02:14:20.373Z,9.60
2017-11-06T02:16:49.407Z,10.63
2017-11-06T02:19:17.661Z,10.80
2017-11-06T02:21:45.949Z,11.27
2017-11-06T02:24:14.236Z,10.03
2017-11-06T02:26:42.519Z,11.43
2017-11-06T02:29:10.777Z,10.60
2017-11-06T02:31:39.058Z,11.37
2017-11-06T02:34:07.429Z,10.90
2017-11-06T02:36:36.437Z,12.60
2017-11-06T02:39:04.689Z,11.60
2017-11-06T02:41:32.992Z,10.57
2017-11-06T02:44:01.242Z,11.53
2017-11-06T02:46:31.263Z,12.73
2017-11-06T02:48:59.587Z,12.10
2017-11-06T02:51:27.825Z,12.97
2017-11-06T02:53:56.072Z,11.83
2017-11-06T02:56:25.138Z,12.10
2017-11-06T02:58:53.388Z,13.30
2017-11-06T03:01:22.517Z,12.63
2017-11-06T03:03:50.834Z,13.03
2017-11-06T03:06:19.858Z,13.00
2017-11-06T03:08:48.124Z,13.27
2017-11-06T03:11:16.401Z,13.30
2017-11-06T03:13:44.675Z,13.50
2017-11-06T03:16:12.937Z,13.07
2017-11-06T03:18:41.222Z,13.30
2017-11-06T03:21:09.493Z,13.83
2017-11-06T03:23:39.377Z,14.33
2017-11-06T03:26:08.236Z,12.77
2017-11-06T03:28:36.492Z,12.40
2017-11-06T03:31:04.771Z,12.47
2017-11-06T03:33:33.044Z,13.10
2017-11-06T03:36:01.335Z,14.33
2017-11-06T03:38:29.585Z,14.33
2017-11-06T03:40:57.836Z,13.57
2017-11-06T03:43:26.100Z,13.90
2017-11-06T03:45:54.415Z,13.97
2017-11-06T03:48:22.695Z,13.17
2017-11-06T03:50:50.948Z,12.30
2017-11-06T03:53:19.998Z,13.30
2017-11-06T03:55:48.269Z,13.70
2017-11-06T03:58:16.536Z,13.90
2017-11-06T04:00:45.609Z,13.40
2017-11-06T04:03:13.889Z,13.30
2017-11-06T04:05:42.152Z,13.40
2017-11-06T04:08:11.165Z,13.20
2017-11-06T04:10:39.448Z,14.90
2017-11-06T04:13:07.691Z,12.63
2017-11-06T04:15:36.717Z,14.97
2017-11-06T04:18:04.988Z,14.90
2017-11-06T04:20:33.247Z,13.53
2017-11-06T04:23:01.570Z,13.40
2017-11-06T04:25:29.885Z,13.60
2017-11-06T04:27:58.159Z,13.53
2017-11-06T04:30:26.477Z,14.30
2017-11-06T04:32:54.770Z,13.87
2017-11-06T04:35:23.061Z,13.83
2017-11-06T04:37:52.131Z,13.67
2017-11-06T04:40:20.404Z,13.37
2017-11-06T04:42:48.674Z,13.60
2017-11-06T04:45:16.984Z,13.60
2017-11-06T04:47:45.297Z,14.73
2017-11-06T04:50:14.321Z,13.33
2017-11-06T04:52:42.583Z,14.03
2017-11-06T04:55:11.614Z,13.90
2017-11-06T04:57:40.943Z,13.70
2017-11-06T05:00:09.235Z,13.67
2017-11-06T05:02:37.526Z,14.13
2017-11-06T05:05:05.771Z,12.70
2017-11-06T05:07:34.534Z,13.03
2017-11-06T05:10:02.846Z,12.63
2017-11-06T05:12:31.093Z,12.83
2017-11-06T05:14:59.414Z,13.40
2017-11-06T05:17:27.670Z,12.37
2017-11-06T05:19:56.700Z,13.77
2017-11-06T05:22:25.000Z,13.30
2017-11-06T05:24:53.258Z,14.00
2017-11-06T05:27:21.542Z,12.90
2017-11-06T05:29:49.822Z,13.57
2017-11-06T05:32:18.133Z,12.73
2017-11-06T05:34:46.526Z,13.97
2017-11-06T05:37:14.765Z,13.80
2017-11-06T05:39:43.058Z,12.90
2017-11-06T05:42:11.309Z,13.20
2017-11-06T05:44:39.667Z,13.53
2017-11-06T05:47:07.977Z,14.10
2017-11-06T05:49:36.245Z,13.00
2017-11-06T05:52:04.529Z,13.13
2017-11-06T05:54:32.773Z,15.03
2017-11-06T05:57:01.103Z,13.63
2017-11-06T05:59:29.488Z,14.20
2017-11-06T06:01:57.726Z,13.03
2017-11-06T06:04:25.981Z,14.07
2017-11-06T06:06:54.523Z,13.50
2017-11-06T06:09:22.749Z,13.60
2017-11-06T06:11:51.011Z,13.70
2017-11-06T06:14:19.351Z,14.53
2017-11-06T06:16:47.584Z,13.60
2017-11-06T06:19:16.006Z,14.70
2017-11-06T06:21:44.310Z,14.70
2017-11-06T06:24:12.588Z,13.60
2017-11-06T06:26:41.042Z,14.97
2017-11-06T06:29:09.359Z,15.90
2017-11-06T06:31:37.618Z,16.60
2017-11-06T06:34:06.740Z,16.43
2017-11-06T06:36:34.988Z,16.60
2017-11-06T06:39:03.238Z,16.50
2017-11-06T06:41:31.524Z,16.03
2017-11-06T06:44:01.301Z,19.30
2017-11-06T06:46:29.544Z,17.73
2017-11-06T06:48:57.949Z,16.47
2017-11-06T06:51:26.225Z,15.70
2017-11-06T06:53:54.494Z,17.63
2017-11-06T06:56:22.741Z,16.13
2017-11-06T06:58:51.017Z,17.53
2017-11-06T07:01:19.270Z,18.53
2017-11-06T07:03:48.297Z,17.97
2017-11-06T07:06:16.698Z,16.87
2017-11-06T07:08:44.966Z,17.53
2017-11-06T07:11:13.244Z,17.90
2017-11-06T07:13:41.505Z,17.57
2017-11-06T07:16:09.754Z,16.50
2017-11-06T07:18:38.815Z,17.80
2017-11-06T07:21:07.113Z,15.80
2017-11-06T07:23:37.120Z,16.57
2017-11-06T07:26:05.394Z,16.80
2017-11-06T07:28:33.685Z,18.63
2017-11-06T07:31:02.932Z,16.50
2017-11-06T07:33:31.260Z,18.00
2017-11-06T07:36:00.421Z,17.70
2017-11-06T07:38:28.698Z,18.70
2017-11-06T07:40:56.952Z,19.53
2017-11-06T07:43:25.977Z,15.60
2017-11-06T07:45:54.229Z,17.17
2017-11-06T07:48:22.496Z,17.60
2017-11-06T07:50:51.561Z,17.17
2017-11-06T07:53:21.537Z,18.07
2017-11-06T07:55:49.793Z,18.80
2017-11-06T07:58:18.073Z,18.07
2017-11-06T08:00:46.327Z,18.43
2017-11-06T08:03:14.589Z,17.40
2017-11-06T08:05:43.681Z,16.07
2017-11-06T08:08:12.688Z,15.97
2017-11-06T08:10:40.954Z,17.10
2017-11-06T08:13:10.018Z,17.20
2017-11-06T08:15:38.258Z,18.17
2017-11-06T08:18:06.512Z,18.30
2017-11-06T08:20:34.810Z,17.20
2017-11-06T08:23:03.057Z,19.00
2017-11-06T08:25:32.190Z,18.30
2017-11-06T08:28:00.447Z,19.30
2017-11-06T08:30:28.691Z,17.67
2017-11-06T08:32:57.753Z,18.17
2017-11-06T08:35:26.838Z,20.57
2017-11-06T08:37:55.094Z,18.63
2017-11-06T08:40:23.381Z,18.37
2017-11-06T08:42:51.645Z,17.30
2017-11-06T08:45:19.966Z,19.83
2017-11-06T08:47:48.353Z,17.93
2017-11-06T08:50:16.618Z,16.63
2017-11-06T08:52:44.899Z,14.07
2017-11-06T08:55:14.889Z,13.33
2017-11-06T08:57:43.170Z,14.10
2017-11-06T09:00:11.441Z,15.13
2017-11-06T09:02:39.760Z,16.37
2017-11-06T09:05:08.913Z,14.73
2017-11-06T09:07:37.188Z,16.33
2017-11-06T09:10:06.252Z,14.73
2017-11-06T09:12:35.308Z,15.33
2017-11-06T09:15:03.582Z,15.20
2017-11-06T09:17:31.862Z,16.20
2017-11-06T09:20:00.124Z,15.77
2017-11-06T09:22:28.385Z,15.80
2017-11-06T09:24:56.705Z,15.77
2017-11-06T09:27:25.002Z,17.63
2017-11-06T09:29:53.286Z,14.30
2017-11-06T09:32:22.477Z,14.67
2017-11-06T09:34:51.577Z,16.30
2017-11-06T09:37:19.885Z,15.63
2017-11-06T09:39:48.151Z,13.93
2017-11-06T09:42:16.418Z,15.50
2017-11-06T09:44:44.747Z,14.40
2017-11-06T09:47:13.037Z,14.10
2017-11-06T09:49:42.053Z,14.97
2017-11-06T09:52:10.329Z,16.57
2017-11-06T09:54:38.641Z,14.47
2017-11-06T09:57:06.925Z,14.70
2017-11-06T09:59:35.189Z,15.70
2017-11-06T10:02:03.458Z,14.30
2017-11-06T10:04:31.768Z,15.50
2017-11-06T10:07:00.025Z,14.83
2017-11-06T10:09:28.294Z,13.90
2017-11-06T10:11:56.576Z,14.87
2017-11-06T10:14:24.858Z,14.70
2017-11-06T10:16:53.112Z,13.63
2017-11-06T10:19:21.393Z,14.17
2017-11-06T10:21:49.686Z,13.80
2017-11-06T10:24:17.937Z,14.13
2017-11-06T10:26:46.218Z,14.40
2017-11-06T10:29:14.515Z,13.43
2017-11-06T10:31:42.814Z,14.27
2017-11-06T10:34:11.173Z,12.90
2017-11-06T10:36:39.455Z,15.40
2017-11-06T10:39:07.760Z,14.07
2017-11-06T10:41:36.793Z,15.00
2017-11-06T10:44:05.111Z,13.93
2017-11-06T10:46:33.360Z,28.10
2017-11-06T10:49:02.365Z,13.50
2017-11-06T10:51:30.669Z,14.53
2017-11-06T10:53:58.949Z,14.30
2017-11-06T10:56:27.220Z,14.00
2017-11-06T10:58:56.385Z,13.60
2017-11-06T11:01:24.673Z,14.00
2017-11-06T11:03:52.960Z,11.80
2017-11-06T11:06:22.018Z,13.00
2017-11-06T11:08:50.301Z,12.47
2017-11-06T11:11:18.600Z,10.57
2017-11-06T11:13:46.978Z,9.00
2017-11-06T11:16:15.235Z,10.43
2017-11-06T11:18:43.554Z,8.87
2017-11-06T11:21:11.836Z,9.43
2017-11-06T11:23:40.128Z,7.90
2017-11-06T11:26:08.441Z,8.80
2017-11-06T11:28:37.686Z,9.97
2017-11-06T11:31:05.953Z,7.87
2017-11-06T11:33:34.237Z,8.30
2017-11-06T11:36:02.507Z,8.17
2017-11-06T11:38:30.992Z,7.67
2017-11-06T11:40:59.262Z,7.70
2017-11-06T11:43:27.544Z,8.90
2017-11-06T11:45:55.973Z,8.57
2017-11-06T11:48:24.259Z,7.60
2017-11-06T11:50:52.616Z,7.77
2017-11-06T11:53:21.859Z,7.60
2017-11-06T11:55:50.117Z,8.90
2017-11-06T11:58:18.404Z,8.30
2017-11-06T12:00:46.769Z,7.57
2017-11-06T12:03:16.209Z,8.80
2017-11-06T12:05:44.436Z,8.20
2017-11-06T12:08:13.682Z,9.73
2017-11-06T12:10:42.703Z,8.50
2017-11-06T12:13:11.828Z,6.73
2017-11-06T12:15:41.111Z,6.73
2017-11-06T12:18:09.667Z,7.47
2017-11-06T12:21:48.225Z,6.63
2017-11-06T12:24:16.472Z,6.10
2017-11-06T12:26:45.509Z,8.97
2017-11-06T12:29:13.773Z,6.87
2017-11-06T12:31:43.014Z,7.10
2017-11-06T12:34:12.111Z,6.23
2017-11-06T12:36:40.397Z,7.00
2017-11-06T12:39:10.422Z,7.00
2017-11-06T12:41:39.613Z,7.23
2017-11-06T12:44:07.883Z,6.73
2017-11-06T12:46:36.173Z,6.93
2017-11-06T12:49:04.441Z,6.77
2017-11-06T12:51:32.735Z,8.10
2017-11-06T12:54:01.032Z,8.20
2017-11-06T12:56:29.285Z,8.40
2017-11-06T12:58:57.566Z,8.20
2017-11-06T13:01:25.851Z,8.90
2017-11-06T13:03:55.096Z,6.40
2017-11-06T13:06:24.900Z,6.40
2017-11-06T13:08:53.161Z,7.87
2017-11-06T13:11:21.445Z,9.23
2017-11-06T13:13:49.789Z,9.10
2017-11-06T13:16:18.089Z,6.60
2017-11-06T13:18:46.345Z,7.67
2017-11-06T13:21:14.600Z,6.07
2017-11-06T13:23:43.645Z,7.30
2017-11-06T13:26:11.912Z,7.27
2017-11-06T13:28:40.165Z,8.27
2017-11-06T13:31:09.112Z,8.13
2017-11-06T13:33:38.471Z,5.47
2017-11-06T13:36:06.740Z,5.90
2017-11-06T13:38:35.017Z,5.13
2017-11-06T13:41:03.492Z,5.47
2017-11-06T13:43:32.551Z,6.17
2017-11-06T13:46:00.836Z,7.50
2017-11-06T13:48:29.093Z,7.00
2017-11-06T13:50:57.354Z,6.40
2017-11-06T13:53:25.703Z,6.77
2017-11-06T13:55:54.011Z,5.77
2017-11-06T13:58:22.282Z,6.27
2017-11-06T14:00:50.804Z,5.73
2017-11-06T14:03:19.075Z,6.40
2017-11-06T14:05:47.326Z,5.90
2017-11-06T14:08:15.605Z,5.87
2017-11-06T14:10:43.861Z,6.40
2017-11-06T14:13:12.958Z,4.80
2017-11-06T14:15:42.969Z,5.63
2017-11-06T14:18:11.395Z,5.23
2017-11-06T14:20:39.679Z,4.87
2017-11-06T14:23:08.061Z,5.13
2017-11-06T14:25:37.950Z,6.13
2017-11-06T14:28:07.197Z,3.73
2017-11-06T14:30:36.478Z,4.27
2017-11-06T14:33:05.484Z,4.17
2017-11-06T14:35:33.753Z,4.80
2017-11-06T14:38:02.826Z,5.10
2017-11-06T14:40:31.889Z,6.27
2017-11-06T14:43:00.162Z,4.60
2017-11-06T14:45:28.409Z,5.33
2017-11-06T14:47:57.514Z,5.00
2017-11-06T14:50:25.802Z,5.10
2017-11-06T14:52:54.042Z,5.63
2017-11-06T14:55:23.085Z,4.40
2017-11-06T14:57:51.390Z,3.70
2017-11-06T15:00:20.477Z,4.97
2017-11-06T15:02:48.755Z,3.83
2017-11-06T15:05:17.001Z,5.40
2017-11-06T15:07:45.241Z,7.20
2017-11-06T15:10:13.552Z,5.17
2017-11-06T15:12:45.612Z,5.30
2017-11-06T15:15:13.917Z,4.87
2017-11-06T15:17:43.898Z,4.60
2017-11-06T15:20:12.209Z,5.10
2017-11-06T15:22:40.508Z,5.57
2017-11-06T15:25:08.837Z,4.97
2017-11-06T15:27:37.077Z,5.43
2017-11-06T15:30:06.411Z,5.33
2017-11-06T15:32:34.698Z,6.00
2017-11-06T15:35:02.965Z,4.97
2017-11-06T15:37:31.269Z,6.40
2017-11-06T15:40:00.477Z,5.70
2017-11-06T15:42:28.929Z,5.90
2017-11-06T15:44:57.185Z,5.73
2017-11-06T15:47:25.464Z,6.37
2017-11-06T15:49:53.717Z,7.03
2017-11-06T15:52:21.977Z,8.20
2017-11-06T15:54:51.735Z,8.33
2017-11-06T15:57:20.009Z,6.90
2017-11-06T15:59:49.253Z,6.43
2017-11-06T16:02:17.528Z,6.80
2017-11-06T16:04:45.785Z,6.80
2017-11-06T16:07:14.043Z,6.80
2017-11-06T16:09:42.337Z,7.10
2017-11-06T16:12:10.586Z,6.80
2017-11-06T16:14:38.846Z,6.33
2017-11-06T16:17:07.117Z,7.13
2017-11-06T16:19:35.427Z,7.57
2017-11-06T16:22:03.689Z,6.03
2017-11-06T16:24:31.961Z,6.50
2017-11-06T16:27:00.273Z,5.63
2017-11-06T16:29:28.566Z,6.93
2017-11-06T16:31:56.843Z,4.97
2017-11-06T16:34:25.836Z,5.10
2017-11-06T16:36:54.111Z,5.10
2017-11-06T16:39:22.409Z,5.60
2017-11-06T16:41:50.675Z,4.80
2017-11-06T16:44:20.445Z,5.00
2017-11-06T16:46:48.753Z,6.47
2017-11-06T16:49:17.933Z,5.90
2017-11-06T16:51:46.229Z,5.37
2017-11-06T16:54:14.515Z,7.30
2017-11-06T16:56:42.786Z,6.17
2017-11-06T16:59:11.073Z,6.47
2017-11-06T17:01:39.344Z,7.00
2017-11-06T17:04:07.631Z,6.83
2017-11-06T17:06:35.945Z,6.47
2017-11-06T17:09:04.237Z,6.00
2017-11-06T17:11:32.499Z,6.30
2017-11-06T17:14:00.790Z,5.67
2017-11-06T17:16:29.050Z,5.70
2017-11-06T17:18:58.909Z,6.33
2017-11-06T17:21:28.685Z,9.10
2017-11-06T17:23:56.960Z,7.80
2017-11-06T17:26:25.576Z,6.60
2017-11-06T17:28:53.877Z,6.50
2017-11-06T17:31:22.157Z,6.30
2017-11-06T17:33:51.473Z,6.20
2017-11-06T17:36:19.745Z,7.00
2017-11-06T17:38:48.029Z,6.90
2017-11-06T17:41:16.997Z,8.60
2017-11-06T17:43:46.995Z,8.43
2017-11-06T17:46:15.472Z,7.10
2017-11-06T17:48:43.739Z,7.70
2017-11-06T17:51:12.013Z,7.33
2017-11-06T17:53:40.278Z,6.10
2017-11-06T17:56:08.603Z,6.73
2017-11-06T17:58:37.732Z,7.27
2017-11-06T18:01:05.978Z,7.60
2017-11-06T18:03:35.719Z,5.17
2017-11-06T18:06:03.966Z,5.87
2017-11-06T18:08:32.217Z,6.47
2017-11-06T18:11:01.572Z,7.23
2017-11-06T18:13:29.829Z,6.20
2017-11-06T18:15:58.099Z,6.33
2017-11-06T18:18:26.392Z,6.97
2017-11-06T18:20:59.742Z,4.93
2017-11-06T18:23:33.198Z,5.93
2017-11-06T18:26:02.022Z,5.07
2017-11-06T18:28:30.271Z,4.60
2017-11-06T18:30:58.621Z,3.80
2017-11-06T18:33:26.881Z,5.70
2017-11-06T18:35:55.175Z,4.93
2017-11-06T18:38:23.724Z,6.23
2017-11-06T18:40:52.801Z,4.77
2017-11-06T18:43:21.060Z,5.50
2017-11-06T18:45:49.473Z,5.20
2017-11-06T18:48:17.822Z,4.93
2017-11-06T18:50:46.066Z,5.40
2017-11-06T18:53:15.332Z,5.03
2017-11-06T18:55:43.586Z,5.13
2017-11-06T18:58:11.835Z,7.40
2017-11-06T19:00:40.129Z,5.83
2017-11-06T19:03:09.420Z,5.60
2017-11-06T19:05:39.394Z,5.90
2017-11-06T19:08:08.651Z,6.17
2017-11-06T19:10:36.920Z,6.37
2017-11-06T19:13:05.204Z,6.00
2017-11-06T19:15:33.510Z,6.70
2017-11-06T19:18:01.777Z,6.77
2017-11-06T19:20:31.557Z,6.23
2017-11-06T19:23:00.059Z,7.03
2017-11-06T19:25:28.383Z,5.83
2017-11-06T19:27:57.946Z,7.37
2017-11-06T19:30:27.047Z,6.03
2017-11-06T19:32:55.319Z,6.57
2017-11-06T19:35:23.615Z,5.93
2017-11-06T19:37:51.894Z,6.50
2017-11-06T19:40:20.161Z,5.30
2017-11-06T19:42:49.926Z,6.43
2017-11-06T19:45:18.241Z,6.57
2017-11-06T19:47:48.132Z,7.93
2017-11-06T19:50:16.427Z,5.73
2017-11-06T19:52:44.881Z,5.70
2017-11-06T19:55:14.045Z,5.80
2017-11-06T19:57:42.407Z,5.90
2017-11-06T20:00:11.648Z,5.40
2017-11-06T20:02:40.196Z,5.87
2017-11-06T20:05:09.662Z,6.60
2017-11-06T20:07:39.005Z,6.80
2017-11-06T20:10:07.853Z,7.17
2017-11-06T20:12:37.197Z,5.50
2017-11-06T20:15:05.801Z,5.70
2017-11-06T20:17:34.389Z,7.47
2017-11-06T20:20:03.748Z,6.50
2017-11-06T20:22:32.330Z,5.90
2017-11-06T20:25:01.955Z,7.23
2017-11-06T20:27:30.617Z,7.10
2017-11-06T20:29:59.218Z,6.90
2017-11-06T20:32:28.666Z,6.80
2017-11-06T20:34:57.247Z,7.07
2017-11-06T20:37:25.962Z,6.93
2017-11-06T20:39:56.070Z,8.17
2017-11-06T20:42:24.767Z,7.37
2017-11-06T20:44:53.932Z,9.20
2017-11-06T20:47:22.496Z,8.50
2017-11-06T20:49:51.911Z,9.27
2017-11-06T20:52:22.559Z,11.63
2017-11-06T20:54:51.927Z,9.67
2017-11-06T20:57:20.276Z,8.13
2017-11-06T20:59:49.314Z,10.60
2017-11-06T21:02:18.536Z,9.30
2017-11-06T21:04:48.321Z,10.30
2017-11-06T21:07:16.629Z,9.50
2017-11-06T21:09:44.929Z,9.87
2017-11-06T21:12:21.933Z,9.73
2017-11-06T21:14:50.442Z,10.40
2017-11-06T21:17:18.831Z,10.03
2017-11-06T21:19:47.154Z,11.50
2017-11-06T21:22:15.546Z,11.00
2017-11-06T21:24:43.901Z,11.30
2017-11-06T21:27:12.941Z,10.07
2017-11-06T21:29:46.922Z,10.40
2017-11-06T21:32:15.176Z,10.60
2017-11-06T21:34:44.225Z,9.63
2017-11-06T21:37:12.525Z,9.20
2017-11-06T21:39:40.822Z,11.27
2017-11-06T21:42:09.082Z,9.93
2017-11-06T21:44:38.297Z,10.20
2017-11-06T21:47:06.584Z,10.30
2017-11-06T21:49:34.844Z,9.97
2017-11-06T21:52:03.145Z,9.73
2017-11-06T21:54:31.447Z,9.00
2017-11-06T21:57:00.605Z,8.57
2017-11-06T21:59:29.629Z,9.37
2017-11-06T22:01:58.033Z,8.87
2017-11-06T22:04:30.408Z,9.20
2017-11-06T22:06:58.662Z,8.53
2017-11-06T22:09:27.797Z,9.23
2017-11-06T22:11:56.060Z,8.73
2017-11-06T22:14:24.662Z,9.37
2017-11-06T22:16:52.944Z,9.07
2017-11-06T22:19:21.236Z,8.50
2017-11-06T22:21:49.506Z,10.07
2017-11-06T22:24:18.610Z,9.33
2017-11-06T22:26:47.953Z,9.67
2017-11-06T22:29:17.230Z,10.40
2017-11-06T22:31:45.551Z,9.10
2017-11-06T22:34:13.826Z,9.50
2017-11-06T22:36:42.956Z,9.03
2017-11-06T22:39:12.079Z,8.40
2017-11-06T22:41:40.527Z,8.73
2017-11-06T22:44:09.395Z,9.67
2017-11-06T22:46:37.669Z,9.00
2017-11-06T22:49:06.867Z,8.10
2017-11-06T22:51:35.850Z,9.03
2017-11-06T22:54:04.106Z,8.50
2017-11-06T22:56:32.362Z,8.67
2017-11-06T22:59:01.911Z,8.73
2017-11-06T23:01:32.131Z,8.03
2017-11-06T23:04:01.338Z,7.87
2017-11-06T23:06:30.501Z,9.07
2017-11-06T23:09:00.433Z,8.00
2017-11-06T23:11:28.829Z,7.50
2017-11-06T23:13:57.335Z,8.40
2017-11-06T23:16:25.658Z,8.87
2017-11-06T23:18:53.905Z,8.90
2017-11-06T23:21:22.216Z,8.80
2017-11-06T23:23:50.465Z,8.67
2017-11-06T23:26:18.722Z,10.50
2017-11-06T23:28:47.013Z,9.80
2017-11-06T23:31:15.362Z,9.67
2017-11-06T23:33:44.478Z,9.37
2017-11-06T23:36:13.485Z,7.17
2017-11-06T23:38:41.773Z,9.60
2017-11-06T23:41:10.055Z,8.70
2017-11-06T23:43:39.163Z,8.40
2017-11-06T23:46:07.434Z,8.83
2017-11-06T23:48:35.688Z,9.30
2017-11-06T23:51:04.036Z,8.90
2017-11-06T23:53:32.384Z,9.97
2017-11-06T23:56:00.894Z,8.07
2017-11-06T23:58:29.133Z,9.73
